Time;durP1;ratioP1;P1;durP2;ratioP2;P2;SDS_P1;SDS_P2;PMS_P1;PMS_P2;Temp;Humidity;BMP_temperature;BMP_pressure;BME280_temperature;BME280_humidity;BME280_pressure;Samples;Min_cycle;Max_cycle;Signal;HPM_P1;HPM_P2
2022/10/04 00:01:09;;;;;;;11.65;2.38;;;13.00;99.90;;;;;;5030732;28;20044;-50
2022/10/04 00:03:48;;;;;;;7.50;1.52;;;13.00;99.90;;;;;;5030972;28;20025;-53
2022/10/04 00:06:18;;;;;;;11.68;1.73;;;13.00;99.90;;;;;;5048637;28;20027;-53
2022/10/04 00:08:50;;;;;;;4.95;1.20;;;13.00;99.90;;;;;;5050540;28;20029;-49
2022/10/04 00:11:27;;;;;;;5.10;1.33;;;13.00;99.90;;;;;;5021539;28;20124;-50
2022/10/04 00:13:57;;;;;;;6.70;1.30;;;13.00;99.90;;;;;;5050319;28;20090;-53
2022/10/04 00:16:31;;;;;;;6.28;1.38;;;13.10;99.90;;;;;;5035614;28;20026;-55
2022/10/04 00:19:21;;;;;;;3.80;1.27;;;13.00;99.90;;;;;;5050498;28;20063;-52
2022/10/04 00:21:56;;;;;;;5.90;1.25;;;13.00;99.90;;;;;;5029442;28;20029;-51
2022/10/04 00:24:24;;;;;;;8.52;1.83;;;13.00;99.90;;;;;;5026907;28;20036;-49
2022/10/04 00:26:49;;;;;;;3.22;1.33;;;13.00;99.90;;;;;;5047943;28;20025;-51
2022/10/04 00:29:35;;;;;;;5.30;1.40;;;13.00;99.90;;;;;;5030830;28;20143;-49
2022/10/04 00:32:25;;;;;;;5.75;1.80;;;13.00;99.90;;;;;;5035774;28;20444;-54
2022/10/04 00:34:52;;;;;;;6.43;1.45;;;13.00;99.90;;;;;;5010758;28;20040;-53
2022/10/04 00:37:20;;;;;;;5.38;1.33;;;13.00;99.90;;;;;;5033121;28;20104;-54
2022/10/04 00:39:56;;;;;;;6.13;1.60;;;12.90;99.90;;;;;;5048438;28;20381;-52
2022/10/04 00:42:45;;;;;;;6.00;1.70;;;12.90;99.90;;;;;;5023600;28;20029;-53
2022/10/04 00:45:32;;;;;;;4.22;1.23;;;12.80;99.90;;;;;;5010502;28;20102;-55
2022/10/04 00:48:07;;;;;;;8.07;1.73;;;12.70;99.90;;;;;;5027778;28;20033;-52
2022/10/04 00:50:43;;;;;;;3.60;1.50;;;12.60;99.90;;;;;;5010263;28;20405;-52
2022/10/04 00:53:17;;;;;;;;;;;12.50;99.90;;;;;;5010769;28;20026;-52
2022/10/04 00:55:52;;;;;;;7.63;1.83;;;12.50;99.90;;;;;;5009696;28;19959;-53
2022/10/04 00:58:26;;;;;;;9.05;1.80;;;12.40;99.90;;;;;;5049693;28;20082;-53
2022/10/04 01:00:54;;;;;;;6.43;1.80;;;12.40;99.90;;;;;;5017097;28;20511;-48
2022/10/04 01:03:26;;;;;;;9.50;1.55;;;12.30;99.90;;;;;;5029953;28;20060;-52
2022/10/04 01:05:58;;;;;;;5.15;1.30;;;12.20;99.90;;;;;;5011414;28;20021;-52
2022/10/04 01:08:39;;;;;;;6.55;1.60;;;12.20;99.90;;;;;;5048397;28;20021;-53
2022/10/04 01:11:22;;;;;;;5.22;1.63;;;12.20;99.90;;;;;;5014588;28;20164;-51
2022/10/04 01:14:07;;;;;;;9.35;2.00;;;12.30;99.90;;;;;;5049313;28;20050;-53
2022/10/04 01:16:35;;;;;;;8.25;1.58;;;12.30;99.90;;;;;;5022034;28;20029;-51
2022/10/04 01:19:23;;;;;;;6.40;1.60;;;12.40;99.90;;;;;;5049306;28;20036;-53
2022/10/04 01:22:13;;;;;;;7.18;1.75;;;12.40;99.90;;;;;;5036953;28;20037;-51
2022/10/04 01:24:44;;;;;;;7.10;1.50;;;12.40;99.90;;;;;;5002843;28;20030;-48
2022/10/04 01:27:39;;;;;;;6.00;1.48;;;12.40;99.90;;;;;;5019513;28;20036;-53
2022/10/04 01:30:09;;;;;;;6.40;1.00;;;12.40;99.90;;;;;;5048714;28;20195;-51
2022/10/04 01:32:37;;;;;;;5.35;1.20;;;12.50;99.90;;;;;;5022909;28;20030;-54
2022/10/04 01:35:03;;;;;;;4.47;1.40;;;12.50;99.90;;;;;;5048413;28;20036;-51
2022/10/04 01:37:28;;;;;;;7.10;1.65;;;12.50;99.90;;;;;;5025680;28;20246;-53
2022/10/04 01:39:54;;;;;;;6.20;1.85;;;12.50;99.90;;;;;;5048182;28;20370;-53
2022/10/04 01:42:26;;;;;;;9.60;1.92;;;12.50;99.90;;;;;;5026292;28;20033;-55
2022/10/04 01:45:06;;;;;;;7.25;1.73;;;12.40;99.90;;;;;;5009457;28;20030;-53
2022/10/04 01:47:39;;;;;;;7.75;1.63;;;12.40;99.90;;;;;;5021521;28;20036;-50
2022/10/04 01:50:10;;;;;;;5.75;1.13;;;12.40;99.90;;;;;;5009034;28;20560;-61
2022/10/04 01:52:42;;;;;;;8.10;1.52;;;12.40;99.90;;;;;;5022098;28;20062;-59
2022/10/04 01:55:14;;;;;;;8.48;1.70;;;12.40;99.90;;;;;;5009125;28;20121;-52
2022/10/04 01:57:58;;;;;;;8.30;1.67;;;12.30;99.90;;;;;;5022258;28;20026;-53
2022/10/04 02:00:24;;;;;;;4.90;1.50;;;12.30;99.90;;;;;;5011865;28;20057;-52
2022/10/04 02:03:01;;;;;;;6.25;1.58;;;12.30;99.90;;;;;;5030327;28;20643;-53
2022/10/04 02:05:41;;;;;;;8.10;1.40;;;12.20;99.90;;;;;;5008833;28;20032;-54
2022/10/04 02:08:10;;;;;;;14.02;1.60;;;12.20;99.90;;;;;;5025722;28;20021;-52
2022/10/04 02:10:38;;;;;;;5.60;1.42;;;12.10;99.90;;;;;;5048146;28;20429;-54
2022/10/04 02:13:09;;;;;;;5.97;1.20;;;12.10;99.90;;;;;;5026962;28;20477;-53
2022/10/04 02:15:38;;;;;;;7.18;1.50;;;12.10;99.90;;;;;;5008807;28;20044;-51
2022/10/04 02:18:16;;;;;;;6.32;1.73;;;12.10;99.90;;;;;;5028022;28;20064;-53
2022/10/04 02:20:42;;;;;;;6.43;2.20;;;12.10;99.90;;;;;;5008521;28;20030;-53
2022/10/04 02:23:09;;;;;;;5.28;1.55;;;12.10;99.90;;;;;;5027310;28;20110;-53
2022/10/04 02:25:36;;;;;;;9.43;1.48;;;12.00;99.90;;;;;;5048275;28;20018;-53
2022/10/04 02:28:03;;;;;;;6.85;1.63;;;12.00;99.90;;;;;;5026639;28;20029;-55
2022/10/04 02:30:35;;;;;;;11.02;1.98;;;12.00;99.90;;;;;;5047429;28;20044;-55
2022/10/04 02:33:00;;;;;;;8.65;1.70;;;12.00;99.90;;;;;;5023426;28;20579;-51
2022/10/04 02:35:33;;;;;;;4.07;1.40;;;12.00;99.90;;;;;;5047503;28;20036;-52
2022/10/04 02:38:24;;;;;;;4.03;1.20;;;12.00;99.90;;;;;;5023064;28;20061;-54
2022/10/04 02:41:01;;;;;;;4.70;1.38;;;12.00;99.90;;;;;;5008549;28;20022;-55
2022/10/04 02:43:42;;;;;;;7.07;1.52;;;12.00;99.90;;;;;;5008316;28;20116;-55
2022/10/04 02:46:21;;;;;;;6.03;1.63;;;12.00;99.90;;;;;;5008856;28;20091;-50
2022/10/04 02:48:55;;;;;;;5.78;1.20;;;11.90;99.90;;;;;;5047185;28;20389;-56
2022/10/04 02:51:39;;;;;;;4.72;1.40;;;11.80;99.90;;;;;;5015915;28;20041;-53
2022/10/04 02:55:01;;;;;;;6.15;1.58;;;11.70;99.90;;;;;;5052024;28;20550;-52
2022/10/04 02:57:28;;;;;;;4.97;1.35;;;11.70;99.90;;;;;;5005860;28;20543;-53
2022/10/04 03:00:17;;;;;;;6.03;1.50;;;11.60;99.90;;;;;;5032535;28;20394;-55
2022/10/04 03:03:11;;;;;;;4.70;1.65;;;11.50;99.90;;;;;;5037818;28;20492;-54
2022/10/04 03:05:39;;;;;;;9.10;1.60;;;11.40;99.90;;;;;;5012553;28;20505;-56
2022/10/04 03:08:05;;;;;;;5.90;1.65;;;11.30;99.90;;;;;;5032657;28;20022;-50
2022/10/04 03:10:31;;;;;;;7.57;1.60;;;11.30;99.90;;;;;;5051121;28;20037;-54
2022/10/04 03:12:57;;;;;;;13.18;1.90;;;11.20;99.90;;;;;;5030430;28;20079;-55
2022/10/04 03:15:22;;;;;;;11.10;1.58;;;11.10;99.90;;;;;;5051137;28;20044;-51
2022/10/04 03:17:49;;;;;;;5.47;1.17;;;11.10;99.90;;;;;;5030376;28;20025;-52
2022/10/04 03:20:20;;;;;;;8.65;1.48;;;11.00;99.90;;;;;;5050937;28;20033;-56
2022/10/04 03:22:49;;;;;;;9.15;2.05;;;11.00;99.90;;;;;;5014517;28;20091;-50
2022/10/04 03:25:20;;;;;;;4.50;1.30;;;10.90;99.90;;;;;;5051445;28;20036;-52
2022/10/04 03:27:47;;;;;;;8.82;1.45;;;10.80;99.90;;;;;;5023606;28;20525;-52
2022/10/04 03:30:14;;;;;;;5.90;1.60;;;10.80;99.90;;;;;;5050682;28;20029;-53
2022/10/04 03:32:40;;;;;;;7.25;1.80;;;10.70;99.90;;;;;;5030147;28;20040;-53
2022/10/04 03:35:21;;;;;;;7.18;1.73;;;10.70;99.90;;;;;;5050880;28;20033;-54
2022/10/04 03:37:47;;;;;;;9.20;1.65;;;10.60;99.90;;;;;;5023302;28;20036;-53
2022/10/04 03:40:14;;;;;;;6.40;1.58;;;10.60;99.90;;;;;;5050470;28;20025;-56
2022/10/04 03:42:39;;;;;;;6.65;1.75;;;10.60;99.90;;;;;;5030018;28;20022;-55
2022/10/04 03:45:15;;;;;;;6.70;1.90;;;10.60;99.90;;;;;;5050562;28;20070;-55
2022/10/04 03:47:45;;;;;;;7.13;1.55;;;10.60;99.90;;;;;;5034137;28;20021;-54
2022/10/04 03:50:20;;;;;;;6.20;2.00;;;10.60;99.90;;;;;;5031009;28;20509;-56
2022/10/04 03:52:55;;;;;;;7.78;2.25;;;10.60;99.90;;;;;;5022348;28;20112;-55
2022/10/04 03:55:24;;;;;;;5.93;1.40;;;10.60;99.90;;;;;;5050874;28;20094;-52
2022/10/04 03:57:50;;;;;;;5.38;1.30;;;10.60;99.90;;;;;;5029257;28;20032;-54
2022/10/04 04:00:17;;;;;;;7.25;1.52;;;10.60;99.90;;;;;;5048825;28;20037;-55
2022/10/04 04:02:51;;;;;;;9.15;1.73;;;10.60;99.90;;;;;;5040584;28;20164;-54
2022/10/04 04:05:25;;;;;;;5.47;1.42;;;10.60;99.90;;;;;;5010881;28;20390;-55
2022/10/04 04:08:16;;;;;;;4.65;1.38;;;10.60;99.90;;;;;;5022163;28;20033;-52
2022/10/04 04:10:49;;;;;;;8.32;1.45;;;10.60;99.90;;;;;;5010789;28;20037;-56
2022/10/04 04:13:36;;;;;;;8.40;1.42;;;10.60;99.90;;;;;;5025026;28;20044;-55
2022/10/04 04:16:02;;;;;;;6.05;1.70;;;10.60;99.90;;;;;;5010754;28;20133;-51
2022/10/04 04:18:42;;;;;;;7.07;1.70;;;10.60;99.90;;;;;;5028183;28;20105;-55
2022/10/04 04:21:09;;;;;;;7.05;1.50;;;10.60;99.90;;;;;;5026020;28;20037;-56
2022/10/04 04:23:38;;;;;;;9.98;1.63;;;10.70;99.90;;;;;;5035182;28;20032;-52
2022/10/04 04:26:16;;;;;;;6.05;1.52;;;10.60;99.90;;;;;;5030809;28;20034;-55
2022/10/04 04:28:47;;;;;;;8.43;1.95;;;10.60;99.90;;;;;;5027188;28;20029;-55
2022/10/04 04:31:34;;;;;;;4.90;1.40;;;10.60;99.90;;;;;;5010998;28;20409;-56
2022/10/04 04:34:02;;;;;;;8.60;1.73;;;10.50;99.90;;;;;;5009404;28;20022;-56
2022/10/04 04:36:31;;;;;;;7.15;1.65;;;10.50;99.90;;;;;;5047718;28;20484;-52
2022/10/04 04:39:33;;;;;;;8.68;1.67;;;10.50;99.90;;;;;;5050330;28;20061;-54
2022/10/04 04:42:00;;;;;;;5.68;1.42;;;10.40;99.90;;;;;;5018464;28;20033;-52
2022/10/04 04:44:27;;;;;;;10.63;2.25;;;10.40;99.90;;;;;;5050344;28;20052;-55
2022/10/04 04:46:55;;;;;;;9.38;1.80;;;10.30;99.90;;;;;;5032786;28;20028;-50
2022/10/04 04:49:22;;;;;;;9.15;1.83;;;10.30;99.90;;;;;;5050305;28;20017;-56
2022/10/04 04:51:50;;;;;;;7.18;1.60;;;10.30;99.90;;;;;;5031620;28;20120;-52
2022/10/04 04:54:20;;;;;;;6.30;1.42;;;10.30;99.90;;;;;;5050060;28;20025;-53
2022/10/04 04:56:50;;;;;;;6.88;1.50;;;10.30;99.90;;;;;;5025348;28;20128;-54
2022/10/04 04:59:16;;;;;;;7.88;1.85;;;10.40;99.90;;;;;;5032145;28;20065;-56
2022/10/04 05:01:45;;;;;;;6.28;1.80;;;10.50;99.90;;;;;;5040181;28;20128;-54
2022/10/04 05:04:13;;;;;;;6.75;1.90;;;10.50;99.90;;;;;;5043826;28;20082;-54
2022/10/04 05:06:45;;;;;;;7.30;1.77;;;10.60;99.90;;;;;;5027350;28;20507;-56
2022/10/04 05:09:32;;;;;;;8.18;1.55;;;10.60;99.90;;;;;;5029063;28;20508;-54
2022/10/04 05:12:18;;;;;;;5.35;1.52;;;10.60;99.90;;;;;;5020643;28;20067;-56
2022/10/04 05:14:51;;;;;;;7.38;1.63;;;10.60;99.90;;;;;;5028639;28;20041;-55
2022/10/04 05:17:26;;;;;;;7.68;2.03;;;10.60;99.90;;;;;;5025093;28;20033;-54
2022/10/04 05:19:56;;;;;;;6.60;1.53;;;10.60;99.90;;;;;;5009168;28;20616;-56
2022/10/04 05:22:23;;;;;;;5.05;1.92;;;10.60;99.90;;;;;;5013630;28;20478;-52
2022/10/04 05:24:57;;;;;;;6.38;2.03;;;10.60;99.90;;;;;;5025080;28;20485;-56
2022/10/04 05:27:36;;;;;;;6.72;1.85;;;10.50;99.90;;;;;;5019415;28;20631;-56
2022/10/04 05:30:30;;;;;;;4.93;1.63;;;10.60;99.90;;;;;;5006909;28;20109;-53
2022/10/04 05:33:03;;;;;;;5.72;1.67;;;10.60;99.90;;;;;;5044574;28;20033;-60
2022/10/04 05:35:41;;;;;;;6.22;1.80;;;10.60;99.90;;;;;;5008321;28;20127;-59
2022/10/04 05:38:26;;;;;;;8.45;1.98;;;10.70;99.90;;;;;;5019843;28;20472;-60
2022/10/04 05:41:27;;;;;;;12.15;2.35;;;10.70;99.90;;;;;;5008391;28;20398;-60
2022/10/04 05:43:53;;;;;;;10.52;1.83;;;10.70;99.90;;;;;;5020006;28;20041;-59
2022/10/04 05:46:24;;;;;;;8.80;2.03;;;10.80;99.90;;;;;;5046846;28;20028;-59
2022/10/04 05:48:57;;;;;;;11.07;1.92;;;10.80;99.90;;;;;;5025904;28;20508;-59
2022/10/04 05:51:26;;;;;;;7.40;1.65;;;10.80;99.90;;;;;;5008170;28;20041;-59
2022/10/04 05:53:53;;;;;;;12.43;2.10;;;10.80;99.90;;;;;;5027152;28;20026;-59
2022/10/04 05:56:50;;;;;;;7.03;2.25;;;10.90;99.90;;;;;;5029044;28;20045;-60
2022/10/04 05:59:31;;;;;;;;;;;11.00;99.90;;;;;;5048045;28;20028;-60
2022/10/04 06:02:31;;;;;;;9.18;1.85;;;11.40;99.90;;;;;;5028565;28;19917;-61
2022/10/04 06:05:10;;;;;;;7.80;1.75;;;11.60;99.90;;;;;;5047792;28;20112;-58
2022/10/04 06:07:57;;;;;;;5.05;1.55;;;11.90;99.90;;;;;;5016992;28;20037;-59
2022/10/04 06:10:41;;;;;;;5.03;1.40;;;12.10;99.90;;;;;;5008058;28;20042;-62
2022/10/04 06:13:31;;;;;;;7.75;2.63;;;12.40;99.90;;;;;;5032492;28;20112;-61
2022/10/04 06:16:20;;;;;;;4.82;1.40;;;12.60;99.90;;;;;;5007787;28;20029;-61
2022/10/04 06:19:06;;;;;;;4.90;1.80;;;13.10;99.90;;;;;;5022679;28;20048;-61
2022/10/04 06:21:55;;;;;;;7.65;1.60;;;13.20;99.90;;;;;;5007351;28;20030;-61
2022/10/04 06:24:30;;;;;;;6.15;1.70;;;13.20;99.90;;;;;;5017848;28;20057;-60
2022/10/04 06:27:09;;;;;;;10.95;2.05;;;13.10;99.90;;;;;;5009112;28;20025;-61
2022/10/04 06:29:42;;;;;;;9.35;1.70;;;13.00;99.90;;;;;;5047199;28;20029;-61
2022/10/04 06:32:26;;;;;;;7.68;1.33;;;13.00;99.90;;;;;;5011744;28;20037;-61
2022/10/04 06:35:14;;;;;;;7.80;2.08;;;13.00;99.90;;;;;;5047392;28;20029;-61
2022/10/04 06:37:58;;;;;;;8.27;1.77;;;13.10;99.90;;;;;;5020474;28;20017;-62
2022/10/04 06:40:51;;;;;;;11.65;2.95;;;13.20;99.90;;;;;;5027259;28;20026;-61
2022/10/04 06:43:43;;;;;;;6.95;1.73;;;13.20;99.90;;;;;;5020550;28;20501;-61
2022/10/04 06:46:35;;;;;;;5.22;1.60;;;13.20;99.90;;;;;;5007525;28;20038;-60
2022/10/04 06:49:08;;;;;;;7.82;1.90;;;13.40;99.90;;;;;;5023625;28;20486;-61
2022/10/04 06:51:48;;;;;;;4.65;2.00;;;13.60;99.90;;;;;;5023439;28;20485;-61
2022/10/04 06:54:30;;;;;;;6.57;1.30;;;14.20;99.90;;;;;;5007324;28;20226;-61
2022/10/04 06:57:47;;;;;;;6.80;1.75;;;15.10;99.90;;;;;;5007482;28;20057;-60
2022/10/04 07:00:21;;;;;;;4.32;1.35;;;16.10;99.90;;;;;;4986295;28;20269;-57
2022/10/04 07:03:14;;;;;;;4.10;1.40;;;17.20;99.90;;;;;;5044754;28;20027;-59
2022/10/04 07:05:56;;;;;;;7.45;1.75;;;17.90;96.80;;;;;;5002808;28;20048;-59
2022/10/04 07:08:40;;;;;;;3.85;1.38;;;18.60;99.90;;;;;;5030029;28;20061;-59
2022/10/04 07:11:17;;;;;;;4.93;1.30;;;19.20;99.90;;;;;;5007159;28;20478;-59
2022/10/04 07:13:52;;;;;;;5.32;1.67;;;19.60;98.80;;;;;;5020343;28;20053;-59
2022/10/04 07:16:36;;;;;;;3.65;1.30;;;20.00;92.10;;;;;;5046206;28;20029;-59
2022/10/04 07:19:26;;;;;;;5.68;1.48;;;20.00;92.00;;;;;;5018110;28;20029;-59
2022/10/04 07:22:07;;;;;;;5.95;1.73;;;19.70;90.80;;;;;;5007045;28;20029;-60
2022/10/04 07:24:58;;;;;;;6.43;2.00;;;19.20;92.20;;;;;;5003770;28;20041;-60
2022/10/04 07:27:41;;;;;;;8.68;2.28;;;18.80;88.40;;;;;;5009507;28;20104;-60
2022/10/04 07:30:14;;;;;;;10.02;2.30;;;18.40;93.40;;;;;;5027229;28;20033;-60
2022/10/04 07:32:45;;;;;;;7.13;1.92;;;18.10;84.00;;;;;;5017184;28;20032;-59
2022/10/04 07:35:13;;;;;;;10.27;2.42;;;17.80;86.40;;;;;;5046944;28;20564;-59
2022/10/04 07:37:59;;;;;;;6.28;1.80;;;17.60;93.20;;;;;;5034036;28;20024;-59
2022/10/04 07:40:34;;;;;;;5.77;1.60;;;17.50;92.00;;;;;;5048079;28;20393;-59
2022/10/04 07:43:07;;;;;;;5.72;1.70;;;17.40;93.30;;;;;;5024909;28;20025;-60
2022/10/04 07:45:36;;;;;;;5.22;1.63;;;17.40;93.10;;;;;;5010734;28;20037;-60
2022/10/04 07:48:09;;;;;;;4.75;1.85;;;17.40;91.70;;;;;;5047851;28;20515;-58
2022/10/04 07:51:08;;;;;;;7.03;2.10;;;17.30;92.90;;;;;;5010664;28;20041;-60
2022/10/04 07:53:39;;;;;;;6.53;2.22;;;17.10;90.30;;;;;;5033814;28;20033;-59
2022/10/04 07:56:26;;;;;;;8.75;2.75;;;16.90;92.10;;;;;;5030643;28;20029;-58
2022/10/04 07:59:27;;;;;;;6.38;2.05;;;16.70;90.40;;;;;;5023685;28;20117;-53
2022/10/04 08:02:21;;;;;;;9.40;1.90;;;16.40;92.40;;;;;;5021916;28;20281;-50
2022/10/04 08:05:23;;;;;;;4.85;2.10;;;16.30;92.90;;;;;;5010599;28;20057;-52
2022/10/04 08:08:20;;;;;;;3.33;1.65;;;16.10;93.10;;;;;;5047386;28;20056;-52
2022/10/04 08:10:53;;;;;;;5.57;1.63;;;16.00;92.10;;;;;;5030336;28;20103;-51
2022/10/04 08:13:35;;;;;;;7.35;2.05;;;16.00;93.50;;;;;;5028245;28;20155;-53
2022/10/04 08:16:10;;;;;;;8.13;1.52;;;16.00;93.10;;;;;;5010261;28;20117;-54
2022/10/04 08:18:48;;;;;;;2.78;1.10;;;16.00;92.90;;;;;;5020760;28;20041;-52
2022/10/04 08:21:17;;;;;;;10.15;3.30;;;15.90;92.70;;;;;;5010069;28;20096;-51
2022/10/04 08:24:02;;;;;;;7.50;3.42;;;15.90;94.00;;;;;;5031503;28;20034;-53
2022/10/04 08:26:55;;;;;;;7.07;2.70;;;15.90;93.90;;;;;;5009954;28;20033;-54
2022/10/04 08:29:43;;;;;;;8.57;2.45;;;15.80;93.80;;;;;;5024648;28;20091;-49
2022/10/04 08:32:22;;;;;;;5.97;2.10;;;15.80;94.20;;;;;;5008611;28;20076;-51
2022/10/04 08:35:02;;;;;;;4.10;1.95;;;15.70;93.90;;;;;;5010004;28;20401;-52
2022/10/04 08:37:43;;;;;;;5.70;2.00;;;15.60;94.30;;;;;;5012560;28;20053;-49
2022/10/04 08:40:38;;;;;;;5.60;1.83;;;15.50;94.20;;;;;;5049697;28;20120;-50
2022/10/04 08:43:32;;;;;;;9.73;2.03;;;15.50;93.90;;;;;;5013534;28;20485;-55
2022/10/04 08:46:39;;;;;;;6.85;2.00;;;15.40;94.50;;;;;;5009597;28;20490;-51
2022/10/04 08:49:27;;;;;;;3.40;1.58;;;15.50;94.20;;;;;;5031679;28;20417;-52
2022/10/04 08:52:12;;;;;;;6.20;1.70;;;15.60;94.90;;;;;;5009652;28;20444;-52
2022/10/04 08:54:56;;;;;;;8.65;1.90;;;15.70;94.40;;;;;;5026399;28;20070;-57
2022/10/04 08:57:52;;;;;;;6.88;1.35;;;15.90;94.10;;;;;;5033844;28;20037;-53
2022/10/04 09:00:55;;;;;;;5.60;1.38;;;16.00;93.80;;;;;;5048196;28;20047;-53
2022/10/04 09:04:00;;;;;;;4.15;1.33;;;16.00;93.30;;;;;;5036234;28;20044;-55
2022/10/04 09:06:44;;;;;;;4.22;1.55;;;16.00;92.30;;;;;;5009350;28;20548;-52
2022/10/04 09:09:35;;;;;;;5.30;1.55;;;16.00;92.10;;;;;;5018346;28;20545;-55
2022/10/04 09:12:43;;;;;;;3.97;1.40;;;16.00;92.60;;;;;;5026428;28;20531;-52
2022/10/04 09:15:36;;;;;;;4.95;1.55;;;16.20;93.40;;;;;;5024711;28;20045;-51
2022/10/04 09:18:32;;;;;;;4.43;1.42;;;16.30;90.60;;;;;;5016307;28;20115;-50
2022/10/04 09:21:09;;;;;;;5.75;1.50;;;16.30;90.70;;;;;;5045883;28;20032;-52
2022/10/04 09:23:44;;;;;;;5.03;1.60;;;16.30;90.50;;;;;;5012895;28;20426;-51
2022/10/04 09:26:18;;;;;;;6.25;1.92;;;16.40;91.80;;;;;;5017698;28;20048;-52
2022/10/04 09:29:15;;;;;;;4.15;1.73;;;16.60;91.10;;;;;;5014180;28;20495;-54
2022/10/04 09:31:52;;;;;;;;;;;16.80;89.00;;;;;;5019211;28;20090;-54
2022/10/04 09:34:49;;;;;;;7.82;1.52;;;17.00;79.00;;;;;;5019670;28;19913;-61
2022/10/04 09:37:28;;;;;;;4.72;1.58;;;17.30;87.20;;;;;;5005837;28;20040;-61
2022/10/04 09:40:41;;;;;;;5.28;1.75;;;17.50;81.40;;;;;;5013124;28;20059;-60
2022/10/04 09:43:24;;;;;;;5.43;2.17;;;17.70;73.60;;;;;;5017644;28;20534;-61
2022/10/04 09:46:16;;;;;;;3.20;1.42;;;18.00;76.90;;;;;;5044962;28;20116;-61
2022/10/04 09:48:57;;;;;;;4.63;1.42;;;18.30;80.80;;;;;;5033033;28;20155;-61
2022/10/04 09:52:02;;;;;;;4.45;1.60;;;18.50;71.20;;;;;;5044348;28;20033;-61
2022/10/04 09:54:56;;;;;;;2.60;1.48;;;18.70;70.00;;;;;;5020691;28;20034;-61
2022/10/04 09:57:40;;;;;;;4.32;1.70;;;18.80;66.80;;;;;;5023019;28;20056;-61
2022/10/04 10:00:23;;;;;;;3.78;1.45;;;19.00;74.30;;;;;;5024739;28;20564;-60
2022/10/04 10:03:20;;;;;;;1.80;1.30;;;19.10;72.50;;;;;;5026126;28;20044;-61
2022/10/04 10:06:10;;;;;;;6.32;1.30;;;19.10;68.20;;;;;;5025705;28;20104;-61
2022/10/04 10:08:54;;;;;;;5.38;1.63;;;19.20;69.70;;;;;;5023066;28;20393;-61
2022/10/04 10:14:47;;;;;;;3.03;1.73;;;19.10;67.80;;;;;;5032161;28;20044;-61
2022/10/04 10:17:39;;;;;;;5.20;1.92;;;19.00;63.70;;;;;;5007816;28;20071;-60
2022/10/04 10:20:22;;;;;;;3.83;1.60;;;19.00;66.90;;;;;;5008088;28;20080;-60
2022/10/04 10:23:25;;;;;;;5.68;1.90;;;18.90;62.00;;;;;;5007357;28;20060;-61
2022/10/04 10:26:04;;;;;;;3.92;1.60;;;19.00;59.40;;;;;;5047007;28;20023;-61
2022/10/04 10:28:45;;;;;;;2.13;1.20;;;19.10;65.40;;;;;;5013728;28;20140;-61
2022/10/04 10:31:23;;;;;;;2.55;1.58;;;19.20;66.20;;;;;;5009229;28;20042;-61
2022/10/04 10:34:34;;;;;;;3.53;1.58;;;19.30;67.10;;;;;;5030250;28;20028;-60
2022/10/04 10:37:21;;;;;;;2.30;1.63;;;19.40;62.20;;;;;;5007822;28;20033;-59
2022/10/04 10:40:24;;;;;;;4.88;1.95;;;19.60;61.10;;;;;;5023891;28;20528;-61
2022/10/04 10:42:55;;;;;;;2.83;1.92;;;19.60;57.80;;;;;;5044632;28;20033;-61
2022/10/04 10:45:57;;;;;;;2.53;1.55;;;19.60;63.60;;;;;;5011104;28;20501;-61
2022/10/04 10:48:34;;;;;;;1.92;1.25;;;19.70;59.60;;;;;;5016132;28;20036;-60
2022/10/04 10:51:19;;;;;;;2.33;1.50;;;19.70;61.80;;;;;;5044748;28;20025;-60
2022/10/04 10:54:10;;;;;;;4.07;1.75;;;19.70;62.40;;;;;;5022382;28;20075;-60
2022/10/04 10:57:03;;;;;;;3.80;1.60;;;19.80;61.70;;;;;;5005124;28;20156;-61
2022/10/04 10:59:32;;;;;;;4.90;1.75;;;19.80;59.20;;;;;;5018321;28;20069;-61
2022/10/04 11:02:08;;;;;;;2.35;1.77;;;19.70;61.70;;;;;;5043792;28;20052;-60
2022/10/04 11:04:53;;;;;;;2.00;1.35;;;19.80;61.40;;;;;;5018960;28;20026;-61
2022/10/04 11:07:45;;;;;;;6.13;2.10;;;19.70;60.40;;;;;;5011027;28;20424;-61
2022/10/04 11:10:46;;;;;;;4.50;1.50;;;19.70;57.00;;;;;;5010597;28;20083;-61
2022/10/04 11:13:43;;;;;;;2.22;1.50;;;19.70;56.50;;;;;;5019307;28;20036;-61
2022/10/04 11:16:42;;;;;;;3.08;1.38;;;19.70;57.60;;;;;;5034013;28;20057;-61
2022/10/04 11:19:35;;;;;;;4.70;1.88;;;19.70;57.30;;;;;;5030057;28;20041;-62
2022/10/04 11:22:43;;;;;;;6.65;2.08;;;19.60;55.60;;;;;;5029126;28;20037;-61
2022/10/04 11:25:35;;;;;;;5.15;1.52;;;19.50;55.90;;;;;;5026768;28;20421;-61
2022/10/04 11:28:11;;;;;;;4.32;1.73;;;19.60;57.80;;;;;;5010926;28;20813;-60
2022/10/04 11:30:55;;;;;;;;;;;19.70;59.50;;;;;;5030874;28;20043;-60
2022/10/04 11:33:58;;;;;;;3.58;1.63;;;19.80;53.80;;;;;;5040364;28;19913;-62
2022/10/04 11:36:36;;;;;;;4.22;1.80;;;20.00;53.90;;;;;;5029200;28;20029;-61
2022/10/04 11:39:19;;;;;;;2.35;1.50;;;20.00;57.30;;;;;;5030737;28;20043;-60
2022/10/04 11:41:59;;;;;;;5.00;1.67;;;20.00;56.70;;;;;;5027238;28;20631;-61
2022/10/04 11:44:33;;;;;;;3.00;1.40;;;20.10;56.60;;;;;;5019321;28;20059;-62
2022/10/04 11:47:09;;;;;;;3.03;1.67;;;20.20;56.30;;;;;;5047380;28;20716;-62
2022/10/04 11:49:58;;;;;;;2.80;1.45;;;20.10;56.40;;;;;;5020925;28;20047;-61
2022/10/04 11:52:39;;;;;;;3.92;1.58;;;20.00;53.90;;;;;;5008400;28;20041;-61
2022/10/04 11:55:38;;;;;;;2.90;1.30;;;20.00;55.40;;;;;;5027779;28;20029;-60
2022/10/04 11:58:40;;;;;;;4.05;1.60;;;20.00;52.40;;;;;;5019358;28;20080;-59
2022/10/04 12:01:51;;;;;;;6.22;1.90;;;19.80;51.90;;;;;;5037062;28;20049;-61
2022/10/04 12:05:02;;;;;;;3.95;1.63;;;19.80;52.00;;;;;;4987642;28;20560;-60
2022/10/04 12:08:00;;;;;;;5.60;1.73;;;19.70;54.20;;;;;;4962591;28;20588;-61
2022/10/04 12:10:38;;;;;;;5.40;1.55;;;19.60;53.60;;;;;;5011939;28;20029;-60
2022/10/04 12:13:14;;;;;;;3.78;1.70;;;19.60;53.60;;;;;;5044838;28;20095;-60
2022/10/04 12:16:08;;;;;;;5.25;1.70;;;19.50;54.70;;;;;;5045529;28;20060;-60
2022/10/04 12:18:36;;;;;;;4.70;1.58;;;19.50;53.30;;;;;;5028443;28;20487;-60
2022/10/04 12:21:27;;;;;;;4.13;1.63;;;19.30;53.90;;;;;;5030170;28;20025;-59
2022/10/04 12:24:15;;;;;;;2.67;1.23;;;19.10;52.70;;;;;;5041117;28;20037;-61
2022/10/04 12:27:02;;;;;;;4.60;1.10;;;19.00;54.90;;;;;;5007997;28;20266;-61
2022/10/04 12:29:58;;;;;;;3.22;1.13;;;18.80;54.80;;;;;;5037319;28;20033;-61
2022/10/04 12:32:38;;;;;;;3.63;1.33;;;18.70;55.50;;;;;;5007862;28;20117;-61
2022/10/04 12:35:12;;;;;;;3.65;1.58;;;18.60;54.10;;;;;;5022986;28;20272;-59
2022/10/04 12:38:07;;;;;;;2.38;1.10;;;18.50;56.20;;;;;;5007411;28;20501;-60
2022/10/04 12:40:47;;;;;;;2.30;1.35;;;18.60;57.70;;;;;;5007294;28;20068;-60
2022/10/04 12:43:39;;;;;;;4.47;1.60;;;18.60;56.60;;;;;;5023739;28;20021;-60
2022/10/04 12:46:43;;;;;;;3.35;1.48;;;18.70;56.40;;;;;;5046202;28;20025;-60
2022/10/04 12:49:35;;;;;;;4.03;1.63;;;18.70;54.50;;;;;;5017425;28;20796;-60
2022/10/04 12:52:26;;;;;;;4.95;1.50;;;18.50;56.00;;;;;;5009500;28;20033;-60
2022/10/04 12:55:08;;;;;;;5.55;1.88;;;18.40;56.20;;;;;;5022742;28;20030;-60
2022/10/04 12:58:02;;;;;;;2.63;1.67;;;18.50;57.30;;;;;;5009236;28;20559;-60
2022/10/04 13:00:34;;;;;;;3.35;1.60;;;18.50;57.80;;;;;;5028309;28;20451;-60
2022/10/04 13:03:28;;;;;;;4.55;2.03;;;18.40;58.10;;;;;;5028640;28;20112;-60
2022/10/04 13:06:47;;;;;;;6.15;1.90;;;18.50;58.30;;;;;;5009306;28;20030;-60
2022/10/04 13:09:38;;;;;;;5.43;1.65;;;18.40;58.50;;;;;;4926477;29;20031;-60
2022/10/04 13:12:30;;;;;;;4.85;1.50;;;18.40;58.30;;;;;;4928474;29;20531;-59
2022/10/04 13:15:08;;;;;;;3.30;1.33;;;18.40;59.40;;;;;;5006890;28;20128;-60
2022/10/04 13:17:50;;;;;;;3.63;1.77;;;18.40;59.50;;;;;;5009238;28;20032;-60
2022/10/04 13:20:34;;;;;;;4.20;2.08;;;18.40;59.60;;;;;;5023624;28;20033;-59
2022/10/04 13:23:15;;;;;;;5.72;2.10;;;18.40;59.80;;;;;;5011714;28;20583;-60
2022/10/04 13:25:56;;;;;;;6.93;1.63;;;18.40;60.10;;;;;;5008846;28;20034;-60
2022/10/04 13:28:49;;;;;;;5.38;1.88;;;18.30;60.70;;;;;;5010087;28;20497;-60
2022/10/04 13:31:23;;;;;;;4.57;2.05;;;18.30;60.30;;;;;;5048084;28;20056;-60
2022/10/04 13:34:23;;;;;;;6.65;1.85;;;18.30;60.40;;;;;;5016265;28;20025;-56
2022/10/04 13:36:53;;;;;;;6.05;2.25;;;18.30;59.60;;;;;;5028481;28;20071;-55
2022/10/04 13:39:44;;;;;;;6.90;1.63;;;18.30;60.50;;;;;;5035121;28;20028;-54
2022/10/04 13:42:47;;;;;;;5.05;1.58;;;18.30;60.50;;;;;;5008515;28;20397;-56
2022/10/04 13:45:15;;;;;;;7.18;1.45;;;18.30;60.30;;;;;;5027883;28;20025;-53
2022/10/04 13:47:58;;;;;;;5.97;1.80;;;18.30;61.00;;;;;;5034823;28;20282;-53
2022/10/04 13:50:29;;;;;;;6.10;1.40;;;18.20;60.30;;;;;;5024087;28;20052;-53
2022/10/04 13:56:36;;;;;;;4.55;1.17;;;18.20;60.00;;;;;;5008209;28;20041;-54
2022/10/04 13:59:31;;;;;;;4.18;1.13;;;18.20;60.00;;;;;;5018849;28;20044;-60
2022/10/04 14:02:17;;;;;;;2.88;1.60;;;18.20;60.30;;;;;;5012646;28;20041;-50
2022/10/04 14:05:00;;;;;;;5.50;1.58;;;18.20;60.70;;;;;;5029732;28;20543;-52
2022/10/04 14:08:03;;;;;;;4.35;1.60;;;18.30;61.00;;;;;;5008414;28;20617;-54